Time;durP1;ratioP1;P1;durP2;ratioP2;P2;SDS_P1;SDS_P2;PMS_P1;PMS_P2;Temp;Humidity;BMP_temperature;BMP_pressure;BME280_temperature;BME280_humidity;BME280_pressure;Samples;Min_cycle;Max_cycle;Signal;HPM_P1;HPM_P2
2022/11/15 00:00:14;;;;;;;;;5.25;3.50;;;;;13.09;72.35;100923.44;3042578;22;45168;-86
2022/11/15 00:01:25;;;;;;;;;7.75;7.25;;;;;13.09;72.57;100930.53;3047771;22;45411;-86
2022/11/15 00:02:35;;;;;;;;;8.50;6.75;;;;;13.07;72.21;100930.56;3059617;22;45112;-85
2022/11/15 00:03:46;;;;;;;;;5.75;3.75;;;;;13.05;72.21;100928.00;3042945;22;46982;-86
2022/11/15 00:04:56;;;;;;;;;5.50;5.50;;;;;13.03;72.44;100924.56;3048159;22;45227;-86
2022/11/15 00:06:07;;;;;;;;;8.00;7.00;;;;;13.02;72.20;100935.16;3057613;22;47868;-86
2022/11/15 00:07:17;;;;;;;;;6.50;5.75;;;;;12.97;72.27;100930.06;3042830;22;44578;-85
2022/11/15 00:08:31;;;;;;;;;3.50;3.50;;;;;12.95;72.25;100931.91;3031508;22;47053;-85
2022/11/15 00:09:42;;;;;;;;;7.00;7.00;;;;;12.93;72.27;100928.50;3048670;22;45134;-86
2022/11/15 00:10:57;;;;;;;;;8.75;7.00;;;;;12.90;72.36;100929.47;3059377;22;46143;-86
2022/11/15 00:12:07;;;;;;;;;5.25;5.25;;;;;12.87;72.33;100924.31;3042144;22;44592;-85
2022/11/15 00:13:17;;;;;;;;;4.50;4.50;;;;;12.86;72.22;100927.88;3047164;22;45129;-86
2022/11/15 00:14:27;;;;;;;;;6.75;5.75;;;;;12.83;72.32;100923.59;3058236;22;45139;-85
2022/11/15 00:15:40;;;;;;;;;2.00;2.00;;;;;12.81;72.21;100925.44;3059097;22;46366;-86
2022/11/15 00:16:50;;;;;;;;;4.00;4.00;;;;;12.79;72.57;100923.75;3059454;22;45158;-86
2022/11/15 00:18:00;;;;;;;;;7.00;4.00;;;;;12.74;72.21;100913.38;3042881;22;48060;-86
2022/11/15 00:19:11;;;;;;;;;9.00;4.50;;;;;12.73;72.53;100914.31;3043023;22;45215;-86
2022/11/15 00:20:21;;;;;;;;;4.75;4.75;;;;;12.71;72.36;100910.88;3031750;22;48224;-85
2022/11/15 00:21:31;;;;;;;;;4.50;3.25;;;;;12.68;72.56;100906.56;3046857;22;45192;-86
2022/11/15 00:22:42;;;;;;;;;7.00;7.00;;;;;12.66;72.83;100911.06;3042556;22;46781;-86
2022/11/15 00:23:52;;;;;;;;;5.25;5.25;;;;;12.66;72.60;100915.47;3047650;22;45172;-87
2022/11/15 00:25:03;;;;;;;;;4.50;4.50;;;;;12.62;72.52;100904.16;3057553;22;46551;-86
2022/11/15 00:26:15;;;;;;;;;8.75;6.25;;;;;12.60;72.56;100906.88;3036867;22;45707;-87
2022/11/15 00:27:25;;;;;;;;;6.75;4.00;;;;;12.56;72.60;100900.00;3048033;22;46018;-87
2022/11/15 00:28:35;;;;;;;;;5.25;4.50;;;;;12.54;72.63;100901.84;3057345;22;45289;-86
2022/11/15 00:29:46;;;;;;;;;6.75;4.25;;;;;12.52;72.73;100903.66;3042259;22;47822;-86
2022/11/15 00:31:08;;;;;;;;;6.75;6.75;;;;;12.49;72.55;100898.53;3030876;22;45226;-86
2022/11/15 00:32:18;;;;;;;;;5.25;5.25;;;;;12.47;72.57;100903.00;3042039;22;46190;-86
2022/11/15 00:33:29;;;;;;;;;4.00;4.00;;;;;12.42;72.53;100897.88;3048065;22;44565;-86
2022/11/15 00:34:39;;;;;;;;;7.25;5.00;;;;;12.41;72.36;100901.47;3058653;22;45156;-86
2022/11/15 00:35:49;;;;;;;;;6.25;4.25;;;;;12.39;72.56;100900.66;3059705;22;44533;-87
2022/11/15 00:37:00;;;;;;;;;4.00;4.00;;;;;12.37;72.85;100905.97;3042672;22;46688;-86
2022/11/15 00:38:10;;;;;;;;;7.50;6.00;;;;;12.36;72.66;100899.00;3047642;22;48710;-86
2022/11/15 00:39:20;;;;;;;;;7.50;5.50;;;;;12.34;72.85;100898.19;3059367;22;45297;-86
2022/11/15 00:40:30;;;;;;;;;6.50;5.25;;;;;12.32;72.81;100902.66;3059440;22;44522;-86
2022/11/15 00:41:41;;;;;;;;;6.75;6.75;;;;;12.32;72.86;100897.38;3059276;22;45222;-87
2022/11/15 00:42:51;;;;;;;;;4.75;4.75;;;;;12.29;72.90;100897.50;3057342;22;45230;-86
2022/11/15 00:44:02;;;;;;;;;7.00;7.00;;;;;12.26;72.85;100893.22;3055614;22;46179;-86
2022/11/15 07:42:52;;;;;;;;;6.00;6.00;;;;;11.32;73.75;100466.69;3046663;22;46274;-85
2022/11/15 07:44:02;;;;;;;;;7.00;6.50;;;;;11.35;73.60;100453.41;3058836;22;45166;-85
2022/11/15 07:45:13;;;;;;;;;10.50;7.00;;;;;11.38;73.75;100455.94;3057978;22;47644;-86
2022/11/15 07:46:23;;;;;;;;;4.50;4.25;;;;;11.42;73.83;100456.66;3059266;22;45249;-86
2022/11/15 07:47:33;;;;;;;;;6.00;6.00;;;;;11.43;73.17;100453.94;3059277;22;45155;-85
2022/11/15 07:48:44;;;;;;;;;6.00;5.00;;;;;11.46;73.59;100445.94;3041616;22;45723;-85
2022/11/15 07:49:54;;;;;;;;;5.00;5.00;;;;;11.51;73.70;100450.16;3047347;22;46468;-85
2022/11/15 07:51:04;;;;;;;;;7.50;6.50;;;;;11.54;73.60;100447.38;3042356;22;45175;-85
2022/11/15 07:52:15;;;;;;;;;5.75;5.75;;;;;11.56;73.56;100433.25;3031887;22;49353;-86
2022/11/15 07:53:25;;;;;;;;;6.00;5.00;;;;;11.58;73.58;100436.66;3032167;22;45250;-85
2022/11/15 07:54:35;;;;;;;;;6.25;6.00;;;;;11.61;73.59;100433.03;3047983;22;45308;-85
2022/11/15 07:55:46;;;;;;;;;7.75;5.50;;;;;11.64;73.24;100426.78;3058627;22;44581;-85
2022/11/15 07:56:56;;;;;;;;;4.75;4.75;;;;;11.67;73.73;100430.16;3042505;22;47828;-88
2022/11/15 07:58:12;;;;;;;;;3.25;3.00;;;;;11.70;73.60;100418.66;3048176;22;45274;-85
2022/11/15 07:59:22;;;;;;;;;9.50;5.50;;;;;11.72;73.56;100418.56;3059088;22;45337;-84
2022/11/15 08:00:33;;;;;;;;;6.00;5.25;;;;;11.75;73.34;100413.19;3042865;22;45236;-86
2022/11/15 08:01:43;;;;;;;;;7.00;4.00;;;;;11.79;73.23;100415.63;3031767;22;46992;-85
2022/11/15 08:03:05;;;;;;;;;6.50;6.50;;;;;11.84;73.34;100423.31;3031252;22;45455;-85
2022/11/15 08:04:15;;;;;;;;;4.25;4.00;;;;;11.85;73.46;100418.91;3050011;22;46381;-85
2022/11/15 08:05:25;;;;;;;;;4.75;3.25;;;;;11.87;73.35;100412.66;3059596;22;45178;-85
2022/11/15 08:06:36;;;;;;;;;7.50;4.25;;;;;11.90;73.16;100411.66;3042456;22;46841;-85
2022/11/15 08:07:46;;;;;;;;;7.50;4.25;;;;;11.91;72.96;100418.63;3043203;22;44750;-85
2022/11/15 08:08:57;;;;;;;;;5.00;3.75;;;;;11.95;73.36;100411.47;3031895;22;47006;-85
2022/11/15 08:10:08;;;;;;;;;5.00;4.25;;;;;11.96;73.15;100408.75;3048088;22;45250;-86
2022/11/15 08:11:18;;;;;;;;;2.50;2.50;;;;;11.98;73.20;100406.91;3058018;22;47103;-85
2022/11/15 08:12:28;;;;;;;;;5.25;3.50;;;;;12.01;73.22;100404.13;3042707;22;45268;-85
2022/11/15 08:13:39;;;;;;;;;4.25;4.25;;;;;12.02;72.99;100403.22;3032036;22;47824;-85
2022/11/15 08:14:49;;;;;;;;;4.25;4.25;;;;;12.05;73.28;100404.84;3047194;22;45219;-86
2022/11/15 08:16:02;;;;;;;;;5.00;3.25;;;;;12.07;72.89;100403.00;3042642;22;47335;-85
2022/11/15 08:17:13;;;;;;;;;4.00;3.25;;;;;12.11;72.92;100404.56;3048329;22;44649;-85
2022/11/15 08:18:23;;;;;;;;;6.75;4.25;;;;;12.12;72.87;100397.53;3042828;22;48271;-85
2022/11/15 08:19:34;;;;;;;;;2.75;2.25;;;;;12.13;72.88;100404.53;3043223;22;45228;-85
2022/11/15 08:20:44;;;;;;;;;3.00;2.50;;;;;12.14;72.77;100396.56;3047105;22;46308;-84
2022/11/15 08:21:54;;;;;;;;;3.25;3.00;;;;;12.15;72.86;100400.03;3043054;22;45563;-85
2022/11/15 08:23:06;;;;;;;;;4.25;2.50;;;;;12.17;72.87;100407.91;3047852;22;45340;-85
2022/11/15 08:24:16;;;;;;;;;3.50;2.25;;;;;12.18;72.72;100407.81;3043037;22;45480;-84
2022/11/15 08:25:29;;;;;;;;;3.75;1.50;;;;;12.20;72.54;100408.59;3031747;22;47187;-85
2022/11/15 08:26:39;;;;;;;;;2.50;2.50;;;;;12.21;72.67;100401.56;3032521;22;45297;-85
2022/11/15 08:27:52;;;;;;;;;4.00;3.00;;;;;12.23;72.85;100402.34;3047459;22;45385;-85
2022/11/15 08:29:02;;;;;;;;;7.25;4.00;;;;;12.25;72.62;100403.13;3043048;22;45203;-85
2022/11/15 08:30:13;;;;;;;;;2.50;2.50;;;;;12.26;72.46;100400.44;3042160;22;47931;-85
2022/11/15 08:31:23;;;;;;;;;6.00;3.00;;;;;12.29;73.04;100401.22;3032314;22;45247;-85
2022/11/15 08:32:34;;;;;;;;;5.00;2.50;;;;;12.29;72.57;100386.25;3047005;22;45436;-85
2022/11/15 08:33:45;;;;;;;;;3.00;3.00;;;;;12.33;72.54;100397.50;3043021;22;45179;-85
2022/11/15 08:34:55;;;;;;;;;3.75;2.50;;;;;12.37;72.57;100389.38;3047470;22;47320;-86
2022/11/15 08:36:06;;;;;;;;;3.75;3.75;;;;;12.38;72.59;100388.47;3059520;22;45147;-85
2022/11/15 08:37:16;;;;;;;;;3.25;2.75;;;;;12.43;72.68;100387.38;3042596;22;48429;-85
2022/11/15 08:38:28;;;;;;;;;4.00;1.75;;;;;12.46;72.03;100387.25;3048050;22;45165;-85
2022/11/15 08:39:39;;;;;;;;;3.00;3.00;;;;;12.48;72.27;100385.41;3041381;22;48027;-85
2022/11/15 08:40:51;;;;;;;;;2.00;2.00;;;;;12.53;72.54;100386.03;3032076;22;45253;-85
2022/11/15 08:42:02;;;;;;;;;5.25;2.75;;;;;12.56;72.29;100382.41;3031862;22;47362;-85
2022/11/15 08:43:12;;;;;;;;;6.00;3.25;;;;;12.59;72.26;100383.09;3046835;22;45479;-85
2022/11/15 08:44:23;;;;;;;;;4.25;2.00;;;;;12.62;72.15;100382.09;3058657;22;45116;-85
2022/11/15 08:45:35;;;;;;;;;4.50;2.75;;;;;12.66;72.38;100377.56;3059623;22;44593;-86
2022/11/15 08:46:46;;;;;;;;;3.00;1.75;;;;;12.70;72.11;100374.69;3042336;22;47358;-86
2022/11/15 08:47:56;;;;;;;;;3.75;3.75;;;;;12.73;71.97;100381.59;3042990;22;45293;-85
2022/11/15 08:49:07;;;;;;;;;3.50;3.50;;;;;12.76;72.26;100378.81;3031868;22;48240;-86
2022/11/15 08:50:17;;;;;;;;;4.50;2.75;;;;;12.79;71.97;100365.47;3047765;22;45428;-85
2022/11/15 08:51:27;;;;;;;;;7.75;6.00;;;;;12.83;71.97;100372.31;3059179;22;45279;-85
2022/11/15 08:52:38;;;;;;;;;7.00;6.50;;;;;12.88;71.93;100371.25;3042881;22;45180;-85
2022/11/15 08:53:48;;;;;;;;;9.50;9.25;;;;;12.90;71.79;100370.25;3042234;22;48112;-85
2022/11/15 08:54:58;;;;;;;;;10.00;7.50;;;;;12.94;71.54;100361.22;3047804;22;45262;-85
2022/11/15 08:56:10;;;;;;;;;7.25;5.00;;;;;12.98;71.61;100361.09;3059251;22;46473;-85
2022/11/15 08:57:21;;;;;;;;;6.75;3.50;;;;;12.99;71.74;100357.53;3057608;22;44576;-86
2022/11/15 08:58:31;;;;;;;;;4.00;3.00;;;;;13.02;71.45;100352.94;3042618;22;46864;-85
2022/11/15 08:59:41;;;;;;;;;7.75;4.00;;;;;13.05;71.40;100346.66;3031997;22;45180;-85
2022/11/15 09:00:52;;;;;;;;;7.50;7.25;;;;;13.08;71.53;100345.66;3047026;22;45301;-86
2022/11/15 09:02:03;;;;;;;;;5.00;3.00;;;;;13.11;71.33;100346.34;3042590;22;45090;-85
2022/11/15 09:03:13;;;;;;;;;6.50;4.00;;;;;13.14;71.37;100346.19;3046954;22;47177;-86
2022/11/15 09:04:23;;;;;;;;;5.25;3.50;;;;;13.16;71.16;100339.06;3056740;22;45211;-85
2022/11/15 09:05:37;;;;;;;;;3.00;3.00;;;;;13.20;70.99;100338.91;3058088;22;46567;-86
2022/11/15 09:06:47;;;;;;;;;5.00;4.00;;;;;13.24;71.14;100345.72;3058272;22;45158;-86
2022/11/15 09:07:57;;;;;;;;;6.50;3.75;;;;;13.26;70.72;100339.44;3042356;22;47943;-86
2022/11/15 09:09:08;;;;;;;;;4.25;4.25;;;;;13.28;70.75;100334.09;3047300;22;45234;-86
2022/11/15 09:10:18;;;;;;;;;7.25;3.25;;;;;13.30;70.72;100340.16;3059158;22;45317;-86
2022/11/15 09:11:29;;;;;;;;;6.50;3.50;;;;;13.32;70.69;100330.38;3042477;22;44652;-86
2022/11/15 09:12:39;;;;;;;;;8.25;4.00;;;;;13.33;70.77;100333.88;3047095;22;46185;-85
2022/11/15 09:13:49;;;;;;;;;4.25;3.00;;;;;13.36;70.82;100338.97;3042957;22;45753;-85
2022/11/15 09:15:00;;;;;;;;;7.75;5.00;;;;;13.38;70.80;100337.97;3047894;22;45401;-86
2022/11/15 09:16:12;;;;;;;;;4.00;4.00;;;;;13.39;70.42;100338.81;3043394;22;45180;-86
2022/11/15 09:17:22;;;;;;;;;3.00;3.00;;;;;13.40;70.37;100329.97;3048357;22;46355;-86
2022/11/15 09:18:34;;;;;;;;;3.50;3.00;;;;;13.43;70.49;100332.47;3059642;22;45166;-85
2022/11/15 09:19:44;;;;;;;;;4.25;3.00;;;;;13.44;70.51;100330.66;3059758;22;45310;-86
2022/11/15 09:20:56;;;;;;;;;3.00;3.00;;;;;13.44;70.29;100331.53;3059942;22;44588;-85
2022/11/15 09:22:08;;;;;;;;;6.25;4.25;;;;;13.46;70.47;100334.06;3059797;22;46308;-85
2022/11/15 09:23:18;;;;;;;;;7.00;4.25;;;;;13.47;70.35;100326.09;3043485;22;44659;-86
2022/11/15 09:24:28;;;;;;;;;3.50;2.00;;;;;13.47;69.97;100330.50;3047760;22;45277;-86
2022/11/15 09:25:38;;;;;;;;;2.75;2.75;;;;;13.48;70.02;100333.06;3043183;22;44590;-86
2022/11/15 09:26:51;;;;;;;;;2.25;1.75;;;;;13.49;69.52;100326.00;3031304;22;47837;-85
2022/11/15 09:28:06;;;;;;;;;2.25;2.25;;;;;13.48;69.90;100333.06;3047737;22;45361;-85
2022/11/15 09:29:17;;;;;;;;;4.75;3.00;;;;;13.49;69.43;100332.13;3043010;22;47080;-85
2022/11/15 09:30:27;;;;;;;;;2.00;2.00;;;;;13.49;69.46;100334.78;3048445;22;45361;-85
2022/11/15 09:31:37;;;;;;;;;1.25;1.25;;;;;13.48;69.66;100333.06;3059329;22;46379;-85
2022/11/15 09:32:48;;;;;;;;;4.50;2.00;;;;;13.52;69.69;100328.47;3058809;22;45280;-85
2022/11/15 09:33:58;;;;;;;;;3.00;1.50;;;;;13.54;69.65;100336.31;3058411;22;45343;-85
2022/11/15 09:35:08;;;;;;;;;2.00;2.00;;;;;13.53;69.42;100332.81;3042731;22;44646;-86
2022/11/15 09:36:19;;;;;;;;;4.25;1.25;;;;;13.55;69.58;100335.38;3047386;22;45508;-85
2022/11/15 09:37:32;;;;;;;;;6.25;3.00;;;;;13.58;69.35;100332.63;3042777;22;44708;-85
2022/11/15 09:38:42;;;;;;;;;8.50;3.50;;;;;13.60;69.50;100333.41;3045871;22;47099;-86
2022/11/15 09:39:52;;;;;;;;;3.50;2.00;;;;;13.63;69.19;100340.31;3042283;22;44568;-85
2022/11/15 09:41:11;;;;;;;;;4.25;3.00;;;;;13.65;68.95;100339.28;3031302;22;47277;-85
2022/11/15 09:42:34;;;;;;;;;2.00;2.00;;;;;13.69;69.27;100335.56;3048595;22;44545;-86
2022/11/15 09:44:13;;;;;;;;;1.75;1.50;;;;;13.73;69.15;100337.09;3043216;22;48271;-85
2022/11/15 09:45:47;;;;;;;;;2.75;2.00;;;;;13.77;69.02;100334.28;3054475;22;44597;-86
2022/11/15 09:47:19;;;;;;;;;3.50;2.50;;;;;13.81;68.71;100330.53;3058898;22;45573;-85
2022/11/15 09:48:37;;;;;;;;;4.00;1.75;;;;;13.81;68.77;100333.19;3042361;22;45270;-85
2022/11/15 09:49:53;;;;;;;;;2.00;2.00;;;;;13.83;68.85;100331.31;3049369;22;46249;-85
2022/11/15 09:51:08;;;;;;;;;2.25;2.25;;;;;13.84;68.75;100330.38;3059369;22;45230;-85
2022/11/15 09:52:19;;;;;;;;;5.00;2.00;;;;;13.86;68.63;100336.44;3059069;22;45373;-85
2022/11/15 09:53:36;;;;;;;;;1.75;1.75;;;;;13.88;68.88;100336.38;3043350;22;45197;-86
2022/11/15 09:54:50;;;;;;;;;3.00;3.00;;;;;13.87;69.08;100332.88;3049103;22;46289;-86
2022/11/15 09:56:03;;;;;;;;;5.00;3.00;;;;;13.89;69.08;100336.28;3058633;22;45374;-85
2022/11/15 09:57:18;;;;;;;;;2.00;2.00;;;;;13.88;69.28;100331.91;3058466;22;45635;-85
2022/11/15 09:59:00;;;;;;;;;2.00;1.00;;;;;13.87;69.16;100335.50;3043220;22;45249;-84
2022/11/15 10:00:13;;;;;;;;;2.00;2.00;;;;;13.85;69.38;100340.03;3021624;22;47006;-86
2022/11/15 10:02:01;;;;;;;;;4.50;2.75;;;;;13.82;69.49;100329.63;3032771;22;45270;-86
2022/11/15 10:03:16;;;;;;;;;3.25;2.00;;;;;13.80;69.73;100326.22;3056544;22;46565;-87
2022/11/15 10:04:27;;;;;;;;;4.00;3.00;;;;;13.80;70.13;100323.56;3059751;22;45094;-87
2022/11/15 10:05:41;;;;;;;;;2.75;2.00;;;;;13.79;69.86;100313.94;3043148;22;48194;-87
2022/11/15 10:07:01;;;;;;;;;3.00;3.00;;;;;13.79;70.32;100320.06;3043237;22;45191;-87
2022/11/15 10:08:45;;;;;;;;;3.00;3.00;;;;;13.80;70.32;100315.66;3034415;22;47207;-87
2022/11/15 10:10:01;;;;;;;;;4.75;3.00;;;;;13.78;70.64;100313.06;3055950;22;45267;-87
2022/11/15 10:11:19;;;;;;;;;2.50;2.25;;;;;13.79;70.26;100309.50;3059393;22;45219;-86
2022/11/15 10:12:30;;;;;;;;;4.00;3.00;;;;;13.79;70.63;100311.28;3058575;22;45210;-86
2022/11/15 10:13:44;;;;;;;;;2.50;2.00;;;;;13.81;70.38;100298.84;3059279;22;46265;-86
2022/11/15 10:15:04;;;;;;;;;4.50;2.00;;;;;13.81;70.76;100296.22;3043196;22;45304;-86
2022/11/15 10:16:21;;;;;;;;;2.75;2.50;;;;;13.84;70.72;100301.31;3050252;22;45619;-87
2022/11/15 10:17:51;;;;;;;;;1.75;1.75;;;;;13.86;70.96;100288.03;3059643;22;45097;-86
2022/11/15 10:19:14;;;;;;;;;4.00;2.00;;;;;13.89;70.80;100294.00;3058158;22;48511;-87
2022/11/15 10:20:27;;;;;;;;;9.00;4.00;;;;;13.89;71.05;100278.16;3043407;22;45184;-87
2022/11/15 10:21:56;;;;;;;;;5.50;2.25;;;;;13.92;71.14;100278.00;3033083;22;47293;-87
2022/11/15 10:23:13;;;;;;;;;3.75;3.00;;;;;13.93;70.88;100271.75;3035908;22;44605;-86
2022/11/15 10:24:29;;;;;;;;;4.75;3.00;;;;;13.94;71.23;100269.97;3033145;22;48317;-86
2022/11/15 10:25:40;;;;;;;;;3.00;3.00;;;;;13.96;71.29;100273.38;3043173;22;45139;-86
2022/11/15 10:26:50;;;;;;;;;3.00;3.00;;;;;13.98;71.01;100265.38;3031576;22;47122;-86
2022/11/15 10:28:04;;;;;;;;;3.25;3.25;;;;;14.01;71.24;100254.63;3048126;22;45219;-87
2022/11/15 10:29:21;;;;;;;;;3.25;1.50;;;;;14.03;71.25;100263.31;3041963;22;47218;-87
2022/11/15 10:30:36;;;;;;;;;3.75;3.00;;;;;14.06;71.44;100266.66;3049136;22;45186;-87
2022/11/15 10:31:46;;;;;;;;;4.25;2.00;;;;;14.08;71.52;100274.50;3042759;22;47998;-87
2022/11/15 10:32:57;;;;;;;;;2.00;2.00;;;;;14.11;70.98;100276.97;3048338;22;45215;-86
2022/11/15 10:34:18;;;;;;;;;3.25;2.25;;;;;14.13;71.13;100274.25;3043071;22;47809;-86
2022/11/15 10:35:30;;;;;;;;;5.50;4.50;;;;;14.16;70.97;100271.44;3050503;22;44604;-86
2022/11/15 10:37:06;;;;;;;;;4.00;4.00;;;;;14.16;71.09;100255.56;3042973;22;47106;-86
2022/11/15 10:38:17;;;;;;;;;5.25;2.25;;;;;14.15;71.11;100262.66;3050463;22;45544;-86
2022/11/15 10:39:28;;;;;;;;;4.50;4.00;;;;;14.13;71.16;100246.03;3058740;22;47274;-86
2022/11/15 10:40:40;;;;;;;;;3.50;2.75;;;;;14.13;71.39;100247.81;3043099;22;45246;-86
2022/11/15 10:41:51;;;;;;;;;5.50;4.50;;;;;14.11;71.09;100247.91;3047774;22;46190;-86
2022/11/15 10:43:10;;;;;;;;;4.00;2.00;;;;;14.12;71.17;100239.06;3059308;22;45229;-86
2022/11/15 10:44:29;;;;;;;;;4.00;3.00;;;;;14.11;71.24;100239.13;3059262;22;46259;-87
2022/11/15 10:45:39;;;;;;;;;4.75;4.00;;;;;14.11;71.22;100239.13;3042963;22;45290;-86
2022/11/15 10:46:56;;;;;;;;;4.25;3.00;;;;;14.12;71.17;100240.84;3048061;22;45305;-87
2022/11/15 10:48:12;;;;;;;;;5.00;3.00;;;;;14.10;71.25;100238.25;3059892;22;45145;-87
2022/11/15 10:49:30;;;;;;;;;3.50;2.25;;;;;14.11;71.34;100233.84;3059642;22;46248;-86
2022/11/15 10:50:44;;;;;;;;;4.00;3.75;;;;;14.10;71.42;100234.78;3059874;22;45269;-87
2022/11/15 10:52:11;;;;;;;;;4.00;4.00;;;;;14.10;71.20;100235.63;3043115;22;47145;-86
2022/11/15 10:53:43;;;;;;;;;7.25;3.25;;;;;14.06;71.45;100216.47;3051928;22;45278;-87
2022/11/15 10:54:59;;;;;;;;;5.50;4.00;;;;;14.05;70.79;100221.84;3042221;22;47885;-87
2022/11/15 10:56:15;;;;;;;;;3.00;3.00;;;;;14.04;71.45;100228.06;3049433;22;45193;-87
2022/11/15 10:57:30;;;;;;;;;5.75;4.00;;;;;14.03;71.35;100224.56;3059254;22;45741;-87
2022/11/15 10:58:53;;;;;;;;;3.75;3.25;;;;;14.04;71.49;100217.47;3043396;22;45085;-86
2022/11/15 11:00:18;;;;;;;;;6.50;5.00;;;;;14.02;71.17;100214.94;3034850;22;46984;-87
2022/11/15 11:01:31;;;;;;;;;4.00;4.00;;;;;14.02;71.62;100208.78;3051458;22;45337;-87
2022/11/15 11:02:56;;;;;;;;;5.00;4.00;;;;;14.02;71.45;100209.66;3042560;22;46164;-87
2022/11/15 11:04:08;;;;;;;;;3.00;2.00;;;;;14.02;71.45;100206.16;3051341;22;45121;-87
2022/11/15 11:05:38;;;;;;;;;5.75;3.00;;;;;14.03;71.65;100205.19;3042427;22;47329;-87
2022/11/15 11:06:57;;;;;;;;;4.75;3.50;;;;;14.02;71.75;100191.16;3035964;22;45184;-87
2022/11/15 11:08:10;;;;;;;;;4.00;4.00;;;;;14.04;71.66;100201.63;3032925;22;46878;-87
2022/11/15 11:09:38;;;;;;;;;4.50;4.00;;;;;14.02;71.64;100200.88;3033091;22;45240;-87
2022/11/15 11:10:56;;;;;;;;;5.75;4.50;;;;;14.02;71.64;100195.59;3051580;22;46381;-86
2022/11/15 11:12:10;;;;;;;;;4.25;4.25;;;;;14.01;71.93;100197.38;3059459;22;45119;-87
2022/11/15 11:13:27;;;;;;;;;5.00;4.25;;;;;14.01;71.78;100191.22;3059303;22;46105;-87
2022/11/15 11:14:39;;;;;;;;;6.00;5.00;;;;;14.02;71.88;100187.66;3057314;22;45373;-86
2022/11/15 11:15:58;;;;;;;;;3.00;3.00;;;;;14.00;71.94;100181.63;3042741;22;48406;-86
2022/11/15 11:17:17;;;;;;;;;5.50;4.00;;;;;14.01;72.10;100180.66;3049731;22;45198;-87
2022/11/15 11:18:52;;;;;;;;;9.50;5.50;;;;;14.01;72.09;100178.00;3059481;22;45984;-87
2022/11/15 11:20:08;;;;;;;;;9.25;7.75;;;;;14.01;72.45;100178.00;2996666;22;44753;-87
2022/11/15 11:21:43;;;;;;;;;5.00;5.00;;;;;14.01;72.56;100175.38;3032851;22;48279;-86
2022/11/15 11:22:54;;;;;;;;;13.75;12.50;;;;;14.02;72.18;100182.38;3052427;22;45282;-88
2022/11/15 11:24:16;;;;;;;;;9.25;7.25;;;;;14.03;72.02;100173.50;3042992;22;48160;-88
2022/11/15 11:25:34;;;;;;;;;4.50;4.50;;;;;14.03;72.02;100170.84;3050620;22;45183;-88
2022/11/15 11:27:07;;;;;;;;;7.00;6.25;;;;;14.03;72.13;100166.41;3058835;22;45224;-87
2022/11/15 11:28:36;;;;;;;;;8.00;7.00;;;;;14.04;72.02;100165.50;3059287;22;45146;-88
2022/11/15 11:30:08;;;;;;;;;11.25;7.50;;;;;14.02;72.33;100171.81;3059157;22;45264;-88
2022/11/15 11:31:47;;;;;;;;;6.50;4.75;;;;;14.02;72.26;100161.22;3059103;22;45258;-88
2022/11/15 11:33:10;;;;;;;;;11.75;6.50;;;;;14.03;72.34;100157.63;3058887;22;45310;-87
2022/11/15 11:34:54;;;;;;;;;4.50;3.00;;;;;14.03;72.40;100158.50;3042463;22;44594;-88
2022/11/15 11:36:29;;;;;;;;;5.50;5.00;;;;;14.03;72.27;100158.50;3041765;22;47248;-87
2022/11/15 11:37:51;;;;;;;;;12.00;7.25;;;;;14.04;72.44;100159.34;3037282;22;45310;-88
2022/11/15 11:39:29;;;;;;;;;7.50;6.50;;;;;14.02;72.47;100153.31;3050550;22;46352;-88
2022/11/15 11:40:44;;;;;;;;;7.00;7.00;;;;;14.01;72.55;100154.22;3043247;22;45198;-88
2022/11/15 11:42:13;;;;;;;;;8.00;5.25;;;;;14.00;72.54;100147.25;3048424;22;45191;-89
2022/11/15 11:43:23;;;;;;;;;7.00;7.00;;;;;14.00;72.61;100152.56;3043080;22;45179;-89
2022/11/15 11:44:48;;;;;;;;;5.25;5.25;;;;;13.99;72.70;100146.41;3047891;22;45645;-88
2022/11/15 11:46:26;;;;;;;;;9.25;4.50;;;;;13.98;72.50;100149.97;3059778;22;45302;-88
2022/11/15 11:47:44;;;;;;;;;2.50;2.00;;;;;13.97;72.65;100139.50;3059634;22;46245;-88
2022/11/15 11:49:04;;;;;;;;;7.00;5.00;;;;;13.95;72.98;100143.06;3042918;22;45198;-88
2022/11/15 11:50:27;;;;;;;;;6.25;6.25;;;;;13.94;73.08;100137.88;3033741;22;47989;-89
2022/11/15 11:51:47;;;;;;;;;7.00;7.00;;;;;13.94;72.80;100137.88;3034993;22;44855;-88
2022/11/15 11:53:17;;;;;;;;;9.00;7.50;;;;;13.95;73.25;100144.88;3048761;22;45367;-89
2022/11/15 11:54:48;;;;;;;;;8.00;7.50;;;;;13.96;73.08;100143.94;3059336;22;45285;-89
2022/11/15 11:56:06;;;;;;;;;7.75;5.00;;;;;13.96;72.83;100133.38;3042770;22;47052;-88
2022/11/15 11:57:29;;;;;;;;;7.50;6.50;;;;;13.95;73.03;100131.69;3042553;22;45275;-88
2022/11/15 11:58:43;;;;;;;;;11.75;8.00;;;;;13.94;72.94;100130.81;3034521;22;48188;-88
2022/11/15 12:00:03;;;;;;;;;7.50;6.25;;;;;13.95;72.83;100135.16;3032767;22;45272;-89
2022/11/15 12:01:16;;;;;;;;;9.00;7.75;;;;;13.96;73.13;100130.72;3048299;22;48559;-89
2022/11/15 12:02:34;;;;;;;;;4.50;4.50;;;;;13.97;73.29;100121.88;3042400;22;45341;-88
2022/11/15 12:04:12;;;;;;;;;8.25;6.75;;;;;13.98;73.24;100128.84;3049559;22;45363;-88
2022/11/15 12:05:53;;;;;;;;;6.50;6.50;;;;;13.98;73.33;100118.28;3043151;22;45172;-88
2022/11/15 12:07:15;;;;;;;;;5.00;4.50;;;;;13.97;73.29;100118.38;3051107;22;46765;-89
2022/11/15 12:08:50;;;;;;;;;3.50;3.50;;;;;13.95;73.26;100111.38;3058711;22;44600;-88
2022/11/15 12:10:21;;;;;;;;;4.75;4.50;;;;;13.95;73.45;100106.09;3059208;22;46462;-88
2022/11/15 12:11:50;;;;;;;;;8.00;5.50;;;;;13.97;73.40;100113.09;3042841;22;45285;-89
2022/11/15 12:13:10;;;;;;;;;7.75;7.75;;;;;13.97;73.43;100105.16;3035874;22;47130;-89
2022/11/15 12:14:26;;;;;;;;;8.00;4.50;;;;;13.97;73.38;100111.31;3034172;22;45282;-88
2022/11/15 12:15:43;;;;;;;;;5.50;5.50;;;;;13.96;73.35;100109.59;3049283;22;45249;-88
2022/11/15 12:16:53;;;;;;;;;3.50;3.50;;;;;13.97;73.43;100111.31;3059624;22;45201;-88
2022/11/15 12:18:05;;;;;;;;;6.00;5.00;;;;;14.00;73.62;100102.34;3042027;22;47006;-88
2022/11/15 12:19:15;;;;;;;;;4.75;4.75;;;;;14.01;73.38;100109.31;3043078;22;45273;-88
2022/11/15 12:20:30;;;;;;;;;6.75;6.00;;;;;14.02;73.95;100103.09;3047487;22;46073;-89
2022/11/15 12:22:02;;;;;;;;;4.75;4.25;;;;;14.04;73.55;100106.50;3043131;22;45348;-89
2022/11/15 12:23:16;;;;;;;;;8.25;6.75;;;;;14.07;73.68;100098.41;3042918;22;47147;-89
2022/11/15 12:24:42;;;;;;;;;5.00;5.00;;;;;14.11;73.30;100102.56;3048042;22;44593;-89
2022/11/15 12:26:23;;;;;;;;;6.00;4.25;;;;;14.13;73.71;100100.69;3042880;22;48213;-89
2022/11/15 12:27:56;;;;;;;;;5.50;4.50;;;;;14.15;73.67;100090.88;3037714;22;44619;-89
2022/11/15 12:29:19;;;;;;;;;10.00;7.75;;;;;14.18;73.67;100084.56;3036660;22;47029;-88
2022/11/15 12:31:05;;;;;;;;;7.25;6.75;;;;;14.22;73.84;100079.94;3050047;22;45197;-89
2022/11/15 12:32:30;;;;;;;;;6.00;4.50;;;;;14.24;73.56;100081.56;2996599;22;47275;-89
2022/11/15 12:33:44;;;;;;;;;7.50;4.25;;;;;14.26;73.64;100078.81;3035231;22;45275;-89
2022/11/15 12:34:55;;;;;;;;;4.75;4.25;;;;;14.27;74.02;100073.44;3032543;22;47278;-89
2022/11/15 12:36:12;;;;;;;;;6.50;5.00;;;;;14.27;73.66;100067.31;3047398;22;44613;-89
2022/11/15 12:37:37;;;;;;;;;6.25;5.00;;;;;14.28;73.66;100076.94;3058795;22;45534;-89
2022/11/15 12:39:06;;;;;;;;;6.50;5.00;;;;;14.29;73.82;100076.84;3059580;22;44631;-89
2022/11/15 12:40:37;;;;;;;;;5.25;5.25;;;;;14.30;73.87;100064.47;3043034;22;46043;-89
2022/11/15 12:41:56;;;;;;;;;4.00;4.00;;;;;14.34;74.03;100066.00;3052208;22;45161;-88
2022/11/15 12:43:12;;;;;;;;;6.00;6.00;;;;;14.36;73.88;100060.63;3042126;22;48438;-88
2022/11/15 12:44:31;;;;;;;;;7.75;6.75;;;;;14.39;73.87;100058.66;3049015;22;45180;-88
2022/11/15 12:45:44;;;;;;;;;12.25;7.00;;;;;14.40;73.79;100054.19;3059349;22;45416;-89
2022/11/15 12:46:57;;;;;;;;;5.50;5.50;;;;;14.43;73.76;100047.88;3059199;22;44518;-89
2022/11/15 12:48:17;;;;;;;;;4.50;4.00;;;;;14.45;73.85;100044.19;3058821;22;45300;-88
2022/11/15 12:49:27;;;;;;;;;6.25;5.00;;;;;14.48;73.96;100041.38;3059434;22;44597;-88
2022/11/15 12:50:57;;;;;;;;;8.50;6.50;;;;;14.50;73.72;100046.56;3059262;22;45341;-89